Weather observations for the past three days for
Corvallis, Corvallis Municipal Airport
Imperial (Metric)
Date Time (pdt) Wind (mph) Vis. (mi.) Weather Sky Cond. Temperature (ºF) Relative Humidity Wind Chill (°F) Heat Index (°F) Pressure Precipitation (in)
Air Dwpt 6 hour altimeter (in) sea level (mb) 1 hr 3 hr 6 hr
Max. Min.
01 13:56 W 7 10.00 Overcast BKN038 OVC046 66.9 52 59% 29.89 1012.3
01 12:56 SW 9 10.00 Overcast OVC039 66.9 51.1 57% 29.89 1012.5
01 11:56 SE 12 10.00 Overcast FEW029 OVC041 66 53.1 63% 29.9 1012.9
01 10:56 S 5 10.00 Overcast FEW021 OVC042 64 54 64 57 70% 29.91 1013.1
01 09:56 Calm 10.00 NULL NULL 61 54 78% 29.91 1013.1
01 08:56 Calm 10.00 Overcast BKN023 OVC036 60.1 55 84% 29.92 1013.3
01 07:56 W 3 9.00 Overcast OVC025 57.9 54 87% 29.91 1013.1
01 06:56 Calm 10.00 Overcast BKN025 OVC033 57.9 53.1 84% 29.9 1012.7
01 05:56 Calm 10.00 Overcast OVC025 57.9 53.1 84% 29.89 1012.3
01 04:56 Calm 10.00 Overcast OVC029 57.9 53.1 59 53.1 84% 29.89 1012.3
01 03:56 S 5 10.00 Overcast OVC029 55.9 52 87% 29.88 1012.0
01 02:56 S 3 10.00 Overcast OVC025 55.9 52 87% 29.88 1012.1
01 01:56 SW 8 10.00 Partly Cloudy SCT023 55 51.1 87% 29.89 1012.4
01 00:56 Calm 10.00 Fair CLR 55.9 51.1 84% 29.88 1011.9
31 23:56 Calm 10.00 Fair CLR 57 51.1 81% 29.87 1011.8
31 22:56 NW 8 10.00 Fair CLR 59 53.1 81 57.9 81% 29.86 1011.6
31 21:56 NW 9 10.00 Fair CLR 60.1 52 75% 29.85 1011.0
31 20:56 W 12 10.00 Fair CLR 61 53.1 75% 29.83 1010.5
31 19:56 NW 17 10.00 Fair CLR 64.9 54 68% 29.8 1009.3
31 18:56 W 17 10.00 Fair CLR 70 53.1 55% 29.78 1008.7
31 17:56 NW 16 10.00 Fair CLR 75.9 53.1 45% 78 29.77 1008.3
31 16:56 NW 16 G 23 10.00 Fair CLR 81 54 86 66.9 39% 81 29.77 1008.2
31 15:56 Vrbl 5 6.00 Fair with Haze CLR 84.9 54 35% 83 29.77 1008.1
31 14:56 SE 5 7.00 Fair CLR 82 53.1 37% 81 29.78 1008.6
31 13:56 Calm 10.00 Fair CLR 80.1 53.1 39% 80 29.8 1009.2
31 12:56 Calm 10.00 Fair CLR 75 53.1 46% 78 29.82 1010.1
31 11:56 Vrbl 3 10.00 Fair CLR 73 53.1 50% 29.85 1011.0
31 10:56 E 3 10.00 Fair CLR 66.9 52 68 46 59% 29.86 1011.4
31 08:56 Calm 10.00 Fair CLR 59 52 78% 29.9 1012.6
31 07:56 Calm 10.00 Fair CLR 51.1 48 89% 29.89 1012.4
31 06:56 Calm 10.00 Fair CLR 48 46 93% 29.89 1012.4
31 05:56 Calm 10.00 Fair CLR 51.1 48 89% 29.89 1012.6
31 04:56 W 7 10.00 Fair CLR 50 46.9 64 48.9 89% 48 29.9 1012.7
31 03:56 NW 6 10.00 Fair CLR 52 48 86% 29.91 1013.0
31 02:56 NW 5 10.00 Fair CLR 53.1 48.9 86% 29.91 1013.3
31 01:56 W 6 10.00 Fair CLR 53.1 48 83% 29.93 1013.8
31 00:56 NW 6 10.00 Fair CLR 60.1 50 70% 29.95 1014.3
30 23:56 N 6 10.00 Fair CLR 63 51.1 65% 29.96 1014.7
30 22:56 NW 5 10.00 Fair CLR 64 50 78.1 63 60% 29.97 1014.9
30 21:56 N 6 10.00 Fair CLR 64 50 60% 29.98 1015.5
30 20:56 N 3 10.00 Fair CLR 66.9 50 55% 29.98 1015.4
30 19:56 N 7 10.00 Fair CLR 70 50 49% 29.97 1015.2
30 18:56 N 10 10.00 Fair CLR 75 48.9 40% 77 29.97 1015.4
30 17:56 N 13 10.00 Fair CLR 75.9 48 37% 78 29.99 1015.7
30 16:56 NE 14 G 18 10.00 Fair CLR 78.1 45 79 66.9 31% 78 30 1016.3
30 15:56 N 10 G 16 10.00 Fair CLR 78.1 45 31% 78 30.03 1017.1
30 14:56 N 8 G 16 10.00 Fair CLR 77 46 33% 78 30.06 1018.1
30 13:56 N 9 10.00 Fair CLR 73.9 46.9 38% 30.08 1018.9
30 12:56 N 13 G 17 10.00 Fair CLR 72 46.9 41% 30.1 1019.5
30 11:56 N 8 10.00 Fair CLR 69.1 46.9 45% 30.12 1020.4
30 09:56 NE 9 10.00 Fair CLR 64 50 60% 30.14 1021.0
30 08:56 NE 5 10.00 Fair CLR 59 50 72% 30.15 1021.4
30 07:56 NW 5 10.00 Fair CLR 53.1 48.9 86% 30.16 1021.5
30 06:56 W 3 10.00 Fair CLR 44.1 42.1 93% 30.15 1021.4
30 05:56 S 3 10.00 Fair CLR 45 42.1 90% 30.15 1021.2
30 04:56 NW 6 10.00 Fair CLR 48.9 46.9 57 48.9 93% 47 30.14 1020.9
30 03:56 NW 8 10.00 Fair CLR 50 46.9 89% 47 30.14 1020.9
30 02:56 NW 6 10.00 Fair CLR 51.1 48 89% 30.14 1021.0
30 01:56 NW 5 10.00 Fair CLR 50 46.9 89% 49 30.14 1021.0
30 00:56 N 3 10.00 Fair CLR 54 48.9 83% 30.14 1020.9
29 23:56 NW 7 10.00 Fair CLR 57 50 78% 30.13 1020.7
29 22:56 NW 7 10.00 Fair CLR 57 48.9 73 57 74% 30.13 1020.6
29 21:56 NW 7 10.00 Fair CLR 57.9 48.9 72% 30.13 1020.7
29 20:56 NW 7 10.00 Fair CLR 60.1 48.9 67% 30.12 1020.3
29 19:56 W 8 10.00 Fair CLR 64 48.9 58% 30.11 1019.8
29 18:56 NW 9 G 20 10.00 Fair CLR 68 48 49% 30.1 1019.7
29 17:56 W 17 10.00 Fair CLR 71.1 48 44% 30.1 1019.5
29 16:56 NW 17 G 21 10.00 Fair CLR 73 50 73.9 64.9 44% 30.09 1019.3
29 15:56 NW 13 10.00 Fair CLR 73.9 48 40% 30.1 1019.6
29 14:56 NW 12 G 17 10.00 Mostly Cloudy FEW050 BKN080 73 48 41% 30.11 1019.9
Date Time (pdt) Wind (mph) Vis. (mi.) Weather Sky Cond. Air Dwpt Max. Min. Relative Humidity Wind Chill (°F) Heat Index (°F) altimeter (in) sea level (mb) 1 hr 3 hr 6 hr
6 hour
Temperature (ºF) Pressure Precipitation (in)